Time;durP1;ratioP1;P1;durP2;ratioP2;P2;SDS_P1;SDS_P2;PMS_P1;PMS_P2;Temp;Humidity;BMP_temperature;BMP_pressure;BME280_temperature;BME280_humidity;BME280_pressure;Samples;Min_cycle;Max_cycle;Signal;HPM_P1;HPM_P2
2024/01/15 00:00:05;;;;;;;17.00;11.60;;;;;;;-0.90;88.11;98097.20;106162;1251;60507;-77
2024/01/15 00:02:36;;;;;;;18.00;11.70;;;;;;;-0.94;88.25;98090.96;105917;1256;74146;-76
2024/01/15 00:05:03;;;;;;;14.60;10.50;;;;;;;-0.89;88.32;98090.34;106165;1252;69139;-75
2024/01/15 00:07:30;;;;;;;16.00;11.30;;;;;;;-0.85;88.34;98086.66;105894;1256;71216;-75
2024/01/15 00:09:57;;;;;;;13.90;10.40;;;;;;;-0.89;88.57;98082.88;106033;1256;60376;-74
2024/01/15 00:12:23;;;;;;;17.50;11.60;;;;;;;-0.92;88.48;98081.27;105991;1251;60507;-75
2024/01/15 00:14:50;;;;;;;13.70;9.70;;;;;;;-0.86;88.44;98078.79;106083;1251;73860;-74
2024/01/15 00:17:16;;;;;;;15.00;10.60;;;;;;;-0.78;88.19;98076.91;105888;1252;60498;-75
2024/01/15 00:19:43;;;;;;;13.90;10.50;;;;;;;-0.81;88.32;98081.12;106057;1257;72729;-73
2024/01/15 00:22:10;;;;;;;13.50;9.00;;;;;;;-0.85;88.61;98088.37;105911;1251;61410;-74
2024/01/15 00:24:36;;;;;;;12.50;9.50;;;;;;;-0.77;88.74;98086.67;106124;1254;60418;-75
2024/01/15 00:27:03;;;;;;;13.20;10.20;;;;;;;-0.71;88.68;98093.82;106345;1256;73900;-74
2024/01/15 00:29:30;;;;;;;12.30;8.90;;;;;;;-0.76;88.45;98092.35;109112;1251;69605;-75
2024/01/15 00:31:57;;;;;;;10.70;8.20;;;;;;;-0.78;88.75;98094.90;108173;1251;71623;-74
2024/01/15 00:34:23;;;;;;;14.00;9.40;;;;;;;-0.69;88.49;98097.09;106092;1251;60390;-75
2024/01/15 00:36:50;;;;;;;13.50;9.40;;;;;;;-0.72;88.55;98093.33;106183;1251;60407;-75
2024/01/15 00:39:17;;;;;;;12.20;8.00;;;;;;;-0.77;88.36;98084.55;105945;1252;73692;-75
2024/01/15 00:41:43;;;;;;;11.70;8.30;;;;;;;-0.71;88.27;98091.67;105899;1257;70151;-76
2024/01/15 00:44:10;;;;;;;15.50;10.10;;;;;;;-0.67;88.31;98093.55;106325;1256;60530;-78
2024/01/15 00:46:44;;;;;;;12.10;9.10;;;;;;;-0.74;88.21;98090.90;106859;1251;60493;-77
2024/01/15 00:49:13;;;;;;;13.80;9.30;;;;;;;-0.79;88.92;98105.67;106196;1256;60517;-75
2024/01/15 00:51:40;;;;;;;11.70;9.60;;;;;;;-0.77;89.06;98088.44;106070;1254;73748;-75
2024/01/15 00:54:06;;;;;;;14.70;9.70;;;;;;;-0.79;89.15;98090.33;106000;1251;70352;-76
2024/01/15 00:56:33;;;;;;;14.00;10.40;;;;;;;-0.89;89.39;98083.17;105893;1257;71169;-76
2024/01/15 00:59:00;;;;;;;12.60;9.40;;;;;;;-0.98;89.88;98077.91;106048;1256;61184;-74
2024/01/15 01:01:27;;;;;;;10.90;9.50;;;;;;;-0.92;89.82;98076.83;106074;1251;61079;-75
2024/01/15 01:03:53;;;;;;;12.30;8.70;;;;;;;-0.86;89.81;98074.91;106010;1251;72443;-74
2024/01/15 01:06:20;;;;;;;11.70;9.30;;;;;;;-0.88;89.83;98070.44;106088;1257;69163;-75
2024/01/15 01:08:47;;;;;;;14.70;10.00;;;;;;;-0.93;89.75;98071.42;105947;1256;71257;-76
2024/01/15 01:11:14;;;;;;;13.20;9.10;;;;;;;-0.93;89.73;98078.46;106015;1256;60453;-75
2024/01/15 01:13:41;;;;;;;11.50;8.80;;;;;;;-0.86;89.50;98076.85;105855;1251;181945;-75
2024/01/15 01:17:54;;;;;;;11.10;7.60;;;;;;;-0.93;89.40;98074.55;102714;1296;600472;-75
2024/01/15 01:20:21;;;;;;;12.20;8.60;;;;;;;-0.94;89.44;98077.55;104935;1272;60096;-75
2024/01/15 01:22:49;;;;;;;12.50;9.50;;;;;;;-0.88;89.23;98075.45;105371;1267;60058;-76
2024/01/15 01:25:17;;;;;;;11.30;8.40;;;;;;;-0.92;89.32;98072.19;106885;1267;71014;-77
2024/01/15 01:27:44;;;;;;;13.50;9.70;;;;;;;-0.99;89.37;98077.85;106503;1266;70105;-75
2024/01/15 01:30:12;;;;;;;13.50;10.00;;;;;;;-0.96;89.41;98073.77;107250;1257;71422;-74
2024/01/15 01:32:39;;;;;;;12.60;9.00;;;;;;;-0.90;89.42;98070.58;107791;1257;152510;-75
2024/01/15 01:35:07;;;;;;;12.10;9.40;;;;;;;-0.93;89.43;98071.40;106665;1256;60008;-74
2024/01/15 01:37:34;;;;;;;13.60;10.50;;;;;;;-0.99;89.57;98072.27;106001;1261;70653;-76
2024/01/15 01:40:02;;;;;;;13.40;9.50;;;;;;;-0.96;89.67;98068.05;105692;1260;69306;-77
2024/01/15 01:42:29;;;;;;;13.80;10.30;;;;;;;-0.92;89.64;98069.27;105642;1260;71644;-76
2024/01/15 01:44:57;;;;;;;14.40;9.80;;;;;;;-1.00;89.94;98073.95;105530;1257;59557;-76
2024/01/15 01:47:26;;;;;;;13.50;10.00;;;;;;;-1.06;90.00;98078.45;105740;1257;59826;-76
2024/01/15 01:49:54;;;;;;;12.90;9.20;;;;;;;-1.03;89.89;98067.06;105880;1256;72240;-74
2024/01/15 01:52:21;;;;;;;15.10;9.80;;;;;;;-1.04;89.75;98073.41;105429;1257;69749;-74
2024/01/15 01:54:49;;;;;;;16.30;11.10;;;;;;;-1.13;89.82;98071.59;105639;1260;72633;-75
2024/01/15 01:57:17;;;;;;;16.10;10.70;;;;;;;-1.12;89.82;98075.98;105538;1261;60847;-76
2024/01/15 01:59:44;;;;;;;16.60;10.80;;;;;;;-1.07;89.71;98066.20;105386;1256;60069;-75
2024/01/15 02:02:11;;;;;;;15.20;10.60;;;;;;;-1.12;89.79;98069.93;105524;1256;72203;-74
2024/01/15 02:04:39;;;;;;;15.30;11.10;;;;;;;-1.20;89.73;98073.21;105483;1257;69555;-74
2024/01/15 02:07:06;;;;;;;19.40;11.60;;;;;;;-1.19;89.84;98064.61;105547;1256;72518;-76
2024/01/15 02:09:34;;;;;;;13.80;9.20;;;;;;;-1.16;89.56;98067.12;105577;1262;59741;-78
2024/01/15 02:12:02;;;;;;;11.10;9.10;;;;;;;-1.22;89.59;98070.63;105600;1256;59949;-79
2024/01/15 02:14:29;;;;;;;13.40;9.40;;;;;;;-1.22;89.72;98074.10;105685;1256;73123;-76
2024/01/15 02:16:57;;;;;;;13.20;10.00;;;;;;;-1.15;89.05;98075.10;105530;1256;70142;-76
2024/01/15 02:19:24;;;;;;;14.00;9.40;;;;;;;-1.20;88.57;98074.84;105684;1257;73031;-76
2024/01/15 02:21:52;;;;;;;12.80;8.90;;;;;;;-1.18;88.50;98071.67;105656;1256;60006;-77
2024/01/15 02:24:19;;;;;;;12.70;9.50;;;;;;;-1.12;87.98;98066.15;105742;1260;60437;-77
2024/01/15 02:26:47;;;;;;;11.90;8.80;;;;;;;-1.18;87.71;98071.48;107901;1256;72977;-74
2024/01/15 02:29:14;;;;;;;15.40;9.50;;;;;;;-1.21;87.98;98070.67;107866;1258;69623;-75
2024/01/15 02:31:41;;;;;;;12.80;10.40;;;;;;;-1.13;87.63;98068.17;107298;1256;71302;-75
2024/01/15 02:34:09;;;;;;;13.60;9.70;;;;;;;-1.14;87.36;98065.79;106636;1256;59961;-75
2024/01/15 02:36:36;;;;;;;10.60;7.90;;;;;;;-1.21;87.17;98080.95;106738;1260;59721;-75
2024/01/15 02:39:04;;;;;;;14.20;9.80;;;;;;;-1.19;86.59;98081.35;106006;1256;73079;-76
2024/01/15 02:41:31;;;;;;;12.80;9.30;;;;;;;-1.13;86.22;98078.90;105734;1256;69910;-75
2024/01/15 02:43:59;;;;;;;13.30;9.40;;;;;;;-1.11;85.73;98082.52;106304;1256;71391;-78
2024/01/15 02:46:26;;;;;;;13.50;9.30;;;;;;;-1.19;85.71;98079.56;105472;1262;59734;-76
2024/01/15 02:48:54;;;;;;;13.20;9.30;;;;;;;-1.23;85.72;98080.84;105498;1260;59557;-78
2024/01/15 02:51:21;;;;;;;13.60;9.70;;;;;;;-1.16;85.47;98080.23;105453;1255;73167;-78
2024/01/15 02:53:49;;;;;;;13.40;9.30;;;;;;;-1.19;85.05;98078.59;105530;1260;67743;-75
2024/01/15 02:56:17;;;;;;;14.70;9.70;;;;;;;-1.27;85.00;98073.65;105521;1256;71681;-75
2024/01/15 02:58:44;;;;;;;12.90;9.60;;;;;;;-1.23;84.99;98070.23;105554;1255;60761;-77
2024/01/15 03:01:12;;;;;;;14.00;9.70;;;;;;;-1.27;85.12;98067.10;105993;1253;62269;-77
2024/01/15 03:03:40;;;;;;;13.50;9.70;;;;;;;-1.37;85.21;98065.02;105874;1253;71721;-76
2024/01/15 03:06:07;;;;;;;15.10;10.10;;;;;;;-1.41;85.32;98072.61;105838;1254;68147;-75
2024/01/15 03:08:35;;;;;;;14.80;10.00;;;;;;;-1.34;85.12;98065.30;105695;1254;71707;-75
2024/01/15 03:11:02;;;;;;;12.80;9.50;;;;;;;-1.34;85.24;98065.64;105823;1257;59792;-76
2024/01/15 03:13:30;;;;;;;12.80;9.20;;;;;;;-1.40;85.16;98064.58;105816;1254;61575;-77
2024/01/15 03:15:57;;;;;;;14.30;10.10;;;;;;;-1.46;85.30;98068.52;105863;1255;73100;-77
2024/01/15 03:18:25;;;;;;;14.50;10.00;;;;;;;-1.39;85.08;98065.13;105822;1257;68970;-75
2024/01/15 03:20:53;;;;;;;15.10;9.70;;;;;;;-1.34;84.86;98071.56;106072;1258;71489;-75
2024/01/15 03:23:20;;;;;;;13.80;9.40;;;;;;;-1.40;84.49;98069.56;105898;1258;59651;-77
2024/01/15 03:25:47;;;;;;;17.20;12.70;;;;;;;-1.41;84.41;98062.02;107284;1253;59488;-77
2024/01/15 03:28:15;;;;;;;15.90;9.50;;;;;;;-1.32;84.47;98063.90;108284;1253;71623;-77
2024/01/15 03:30:43;;;;;;;13.20;8.90;;;;;;;-1.33;84.23;98063.44;106377;1256;69052;-75
2024/01/15 03:33:10;;;;;;;14.10;9.60;;;;;;;-1.39;83.98;98063.93;105883;1254;72682;-77
2024/01/15 03:35:38;;;;;;;14.60;10.40;;;;;;;-1.33;84.11;98068.30;105989;1256;60395;-77
2024/01/15 03:38:06;;;;;;;14.80;10.80;;;;;;;-1.33;83.76;98062.38;105812;1255;60102;-76
2024/01/15 03:40:33;;;;;;;17.70;11.10;;;;;;;-1.42;83.58;98069.27;105837;1253;71631;-75
2024/01/15 03:43:01;;;;;;;13.80;10.40;;;;;;;-1.44;83.67;98068.20;105786;1258;69505;-75
2024/01/15 03:45:28;;;;;;;12.90;9.60;;;;;;;-1.39;83.31;98064.08;105788;1253;72097;-76
2024/01/15 03:47:56;;;;;;;14.80;10.50;;;;;;;-1.42;83.25;98074.46;105888;1253;59705;-76
2024/01/15 03:50:24;;;;;;;18.40;11.50;;;;;;;-1.51;83.14;98077.13;105783;1257;59638;-75
2024/01/15 03:52:51;;;;;;;17.10;10.70;;;;;;;-1.52;83.34;98077.24;105751;1256;73240;-76
2024/01/15 03:55:19;;;;;;;16.00;10.80;;;;;;;-1.46;82.89;98072.00;105704;1253;70599;-76
2024/01/15 03:57:46;;;;;;;20.10;11.90;;;;;;;-1.49;82.60;98068.80;105748;1253;71631;-73
2024/01/15 04:00:17;;;;;;;16.20;10.00;;;;;;;-1.58;82.33;98077.25;105818;1257;61053;-73
2024/01/15 04:02:44;;;;;;;15.50;11.40;;;;;;;-1.54;82.57;98080.00;106109;1253;59849;-74
2024/01/15 04:05:12;;;;;;;36.40;20.40;;;;;;;-1.53;82.21;98081.84;105901;1258;75009;-75
2024/01/15 04:07:39;;;;;;;20.30;14.40;;;;;;;-1.62;82.23;98082.80;105891;1257;68691;-74
2024/01/15 04:10:07;;;;;;;16.80;13.10;;;;;;;-1.66;82.36;98080.52;105731;1253;71386;-75
2024/01/15 04:12:34;;;;;;;15.40;11.40;;;;;;;-1.60;82.25;98085.19;105999;1253;59650;-74
2024/01/15 04:15:02;;;;;;;16.40;11.40;;;;;;;-1.66;82.05;98085.86;105925;1256;60016;-75
2024/01/15 04:17:29;;;;;;;17.10;11.30;;;;;;;-1.74;81.89;98083.44;105952;1253;71837;-75
2024/01/15 04:19:57;;;;;;;15.80;11.40;;;;;;;-1.73;81.94;98085.11;105929;1258;70161;-76
2024/01/15 04:22:25;;;;;;;17.40;10.90;;;;;;;-1.70;81.55;98090.39;106728;1253;71540;-74
2024/01/15 04:24:52;;;;;;;17.00;10.40;;;;;;;-1.77;81.57;98084.05;108798;1255;59366;-75
2024/01/15 04:27:20;;;;;;;17.50;11.10;;;;;;;-1.77;81.70;98085.61;108618;1253;60054;-75
2024/01/15 04:29:47;;;;;;;15.30;11.00;;;;;;;-1.69;81.56;98089.80;105832;1252;71791;-74
2024/01/15 04:32:15;;;;;;;17.60;11.80;;;;;;;-1.71;81.43;98093.16;105899;1257;69989;-75
2024/01/15 04:34:42;;;;;;;18.50;12.20;;;;;;;-1.79;81.51;98094.33;105859;1255;72723;-75
2024/01/15 04:37:10;;;;;;;19.30;11.80;;;;;;;-1.79;81.69;98094.45;105836;1254;59741;-73
2024/01/15 04:39:37;;;;;;;19.60;12.60;;;;;;;-1.73;81.67;98095.88;105826;1253;59272;-74
2024/01/15 04:42:05;;;;;;;17.30;11.00;;;;;;;-1.79;81.58;98116.33;105843;1254;73043;-73
2024/01/15 04:44:32;;;;;;;17.20;11.20;;;;;;;-1.86;81.60;98104.81;105933;1255;69563;-74
2024/01/15 04:47:00;;;;;;;17.30;12.10;;;;;;;-1.84;81.64;98109.80;105714;1253;71267;-74
2024/01/15 04:49:29;;;;;;;22.30;14.50;;;;;;;-1.83;81.49;98108.46;105705;1253;59747;-74
2024/01/15 04:51:57;;;;;;;18.10;12.00;;;;;;;-1.91;81.39;98114.95;106049;1253;60020;-73
2024/01/15 04:54:24;;;;;;;18.80;11.20;;;;;;;-1.99;81.32;98113.66;105749;1253;73011;-74
2024/01/15 04:56:51;;;;;;;15.60;11.60;;;;;;;-1.97;81.34;98113.48;105741;1254;69946;-74
2024/01/15 04:59:19;;;;;;;17.70;11.80;;;;;;;-1.94;81.20;98110.36;105811;1253;70817;-74
2024/01/15 05:01:47;;;;;;;20.90;14.10;;;;;;;-2.02;81.15;98118.98;105683;1253;59981;-75
2024/01/15 05:04:14;;;;;;;21.00;12.40;;;;;;;-2.09;81.30;98117.09;105695;1253;60127;-73
2024/01/15 05:06:42;;;;;;;17.30;11.40;;;;;;;-2.04;81.36;98122.05;105754;1254;73035;-73
2024/01/15 05:09:09;;;;;;;17.50;11.70;;;;;;;-1.95;81.03;98106.74;105792;1253;70043;-75
2024/01/15 05:11:37;;;;;;;27.00;19.10;;;;;;;-2.00;80.85;98109.75;105884;1256;72685;-74
2024/01/15 05:14:04;;;;;;;29.10;17.20;;;;;;;-2.05;80.91;98122.68;105816;1254;59545;-74
2024/01/15 05:16:31;;;;;;;19.80;13.20;;;;;;;-2.02;81.02;98117.88;105756;1253;60008;-74
2024/01/15 05:18:59;;;;;;;20.10;13.00;;;;;;;-1.95;80.88;98114.72;106457;1253;72463;-76
2024/01/15 05:21:26;;;;;;;22.70;13.40;;;;;;;-1.98;80.53;98121.22;107760;1253;68949;-74
2024/01/15 05:23:54;;;;;;;24.00;15.00;;;;;;;-2.03;80.41;98112.97;109023;1253;70635;-75
2024/01/15 05:26:21;;;;;;;20.70;14.10;;;;;;;-2.00;80.21;98104.90;108036;1257;60547;-77
2024/01/15 05:28:49;;;;;;;20.70;13.80;;;;;;;-1.93;80.03;98097.90;105951;1253;60359;-77
2024/01/15 05:31:16;;;;;;;21.40;13.60;;;;;;;-1.96;79.84;98100.27;105844;1255;73818;-76
2024/01/15 05:33:44;;;;;;;20.90;12.90;;;;;;;-2.03;79.84;98098.61;105709;1258;68701;-72
2024/01/15 05:36:11;;;;;;;23.10;14.50;;;;;;;-2.06;79.67;98112.67;105835;1253;73499;-73
2024/01/15 05:38:39;;;;;;;21.50;13.30;;;;;;;-1.97;79.58;98113.00;105452;1253;62048;-75
2024/01/15 05:41:06;;;;;;;19.40;12.70;;;;;;;-1.91;79.42;98101.39;105759;1255;60345;-75
2024/01/15 05:43:34;;;;;;;22.10;13.60;;;;;;;-1.97;79.23;98110.89;105842;1258;73866;-74
2024/01/15 05:46:01;;;;;;;21.90;13.10;;;;;;;-2.01;79.42;98117.97;105958;1258;69170;-74
2024/01/15 05:48:28;;;;;;;21.00;13.80;;;;;;;-1.93;79.14;98122.01;105793;1253;72649;-74
2024/01/15 05:50:56;;;;;;;23.80;14.20;;;;;;;-1.87;78.92;98118.60;105815;1254;60544;-74
2024/01/15 05:53:24;;;;;;;21.20;13.50;;;;;;;-1.93;78.85;98124.96;105856;1257;60334;-74
2024/01/15 05:55:51;;;;;;;23.50;14.00;;;;;;;-1.96;78.84;98128.21;105814;1253;72901;-74
2024/01/15 05:58:18;;;;;;;22.50;13.90;;;;;;;-1.90;78.98;98127.02;105948;1253;70608;-76
2024/01/15 06:00:46;;;;;;;22.80;13.60;;;;;;;-1.87;78.84;98126.15;106263;1254;71072;-77
2024/01/15 06:03:13;;;;;;;20.70;13.00;;;;;;;-1.91;78.77;98124.31;106770;1253;60451;-78
2024/01/15 06:05:41;;;;;;;22.50;13.80;;;;;;;-1.91;78.90;98115.06;106161;1253;60387;-78
2024/01/15 06:08:08;;;;;;;22.80;13.70;;;;;;;-1.82;78.93;98120.87;106117;1253;73862;-78
2024/01/15 06:10:36;;;;;;;22.70;14.40;;;;;;;-1.83;78.90;98116.95;105918;1253;70544;-78
2024/01/15 06:13:03;;;;;;;22.40;14.60;;;;;;;-1.87;78.95;98116.09;106361;1253;72661;-77
2024/01/15 06:15:31;;;;;;;18.80;12.90;;;;;;;-1.90;78.96;98125.96;106150;1253;60439;-75
2024/01/15 06:17:58;;;;;;;20.70;12.80;;;;;;;-1.83;78.75;98126.91;106261;1253;60444;-77
2024/01/15 06:20:25;;;;;;;18.10;12.40;;;;;;;-1.75;78.49;98118.42;108515;1251;73002;-79
2024/01/15 06:22:53;;;;;;;21.30;13.00;;;;;;;-1.78;78.15;98119.02;108246;1253;68724;-77
2024/01/15 06:25:20;;;;;;;21.00;13.50;;;;;;;-1.82;78.25;98118.99;107085;1254;71060;-78
2024/01/15 06:27:48;;;;;;;31.70;20.70;;;;;;;-1.75;78.37;98119.15;106284;1253;60772;-76
2024/01/15 06:30:15;;;;;;;36.30;21.80;;;;;;;-1.69;78.11;98124.73;105879;1258;60499;-76
2024/01/15 06:32:43;;;;;;;40.40;24.60;;;;;;;-1.73;78.20;98129.76;106126;1252;73860;-76
2024/01/15 06:35:11;;;;;;;31.70;18.20;;;;;;;-1.77;78.09;98132.31;105841;1253;71972;-77
2024/01/15 06:37:39;;;;;;;20.50;13.70;;;;;;;-1.77;78.13;98129.88;105920;1253;72440;-76
2024/01/15 06:40:08;;;;;;;17.70;11.80;;;;;;;-1.68;78.14;98133.11;105713;1256;60546;-76
2024/01/15 06:42:35;;;;;;;39.60;25.20;;;;;;;-1.62;77.98;98135.39;105876;1257;60461;-76
2024/01/15 06:45:03;;;;;;;32.40;19.30;;;;;;;-1.65;77.59;98137.16;105773;1259;74140;-78
2024/01/15 06:47:32;;;;;;;23.00;13.80;;;;;;;-1.69;77.65;98134.58;106381;1259;70776;-79
2024/01/15 06:50:00;;;;;;;19.80;12.40;;;;;;;-1.70;77.76;98130.15;106091;1253;71844;-77
2024/01/15 06:52:27;;;;;;;21.10;13.80;;;;;;;-1.62;77.79;98120.23;106149;1255;60794;-79
2024/01/15 06:54:55;;;;;;;29.80;17.20;;;;;;;-1.55;77.60;98122.16;106728;1253;60145;-80
2024/01/15 06:57:22;;;;;;;30.90;18.10;;;;;;;-1.58;77.27;98122.21;105928;1253;72598;-79
2024/01/15 06:59:50;;;;;;;24.70;13.40;;;;;;;-1.62;77.49;98126.57;105870;1257;69230;-78
2024/01/15 07:02:18;;;;;;;21.40;14.10;;;;;;;-1.58;77.88;98118.89;105935;1256;72697;-81
2024/01/15 07:04:45;;;;;;;22.00;14.00;;;;;;;-1.50;77.84;98116.65;105903;1253;60556;-78
2024/01/15 07:07:13;;;;;;;32.50;21.90;;;;;;;-1.52;78.04;98114.72;105967;1253;60542;-79
2024/01/15 07:09:40;;;;;;;26.60;17.40;;;;;;;-1.57;78.47;98111.33;106506;1253;72325;-79
2024/01/15 07:12:08;;;;;;;21.80;14.90;;;;;;;-1.56;78.85;98119.27;106110;1258;71306;-79
2024/01/15 07:14:35;;;;;;;26.10;14.80;;;;;;;-1.49;79.02;98119.83;106185;1258;73006;-79
2024/01/15 07:17:03;;;;;;;25.30;14.80;;;;;;;-1.46;79.24;98111.44;106741;1253;60228;-80
2024/01/15 07:19:30;;;;;;;26.40;15.80;;;;;;;-1.50;79.51;98109.70;108649;1253;60358;-80
2024/01/15 07:21:58;;;;;;;24.50;14.60;;;;;;;-1.50;79.76;98109.34;108961;1253;72730;-79
2024/01/15 07:24:26;;;;;;;22.90;15.50;;;;;;;-1.39;80.14;98097.98;107244;1252;69044;-78
2024/01/15 07:26:53;;;;;;;22.10;14.10;;;;;;;-1.39;80.36;98100.58;106320;1253;71061;-80
2024/01/15 07:29:21;;;;;;;22.10;13.50;;;;;;;-1.43;80.60;98109.98;106412;1256;60371;-80
2024/01/15 07:31:51;;;;;;;21.50;13.00;;;;;;;-1.37;80.93;98102.67;106063;1253;60569;-79
2024/01/15 07:34:19;;;;;;;24.90;15.30;;;;;;;-1.31;80.87;98105.50;106062;1256;73834;-78
2024/01/15 07:36:47;;;;;;;23.70;15.70;;;;;;;-1.33;80.95;98104.25;105929;1255;68724;-77
2024/01/15 07:39:15;;;;;;;24.90;13.90;;;;;;;-1.37;81.23;98100.13;105993;1254;72776;-79
2024/01/15 07:41:42;;;;;;;21.60;14.50;;;;;;;-1.31;81.55;98104.45;105784;1256;60553;-80
2024/01/15 07:44:10;;;;;;;29.20;17.90;;;;;;;-1.26;81.48;98092.67;105979;1253;60362;-79
2024/01/15 07:46:39;;;;;;;39.70;24.70;;;;;;;-1.28;81.54;98096.71;105885;1255;73895;-79
2024/01/15 07:49:07;;;;;;;28.20;16.90;;;;;;;-1.33;81.58;98102.85;106028;1253;71211;-79
2024/01/15 07:51:35;;;;;;;24.20;16.30;;;;;;;-1.29;81.86;98093.52;105980;1253;71314;-79
2024/01/15 07:54:02;;;;;;;24.50;16.10;;;;;;;-1.20;81.65;98093.26;106028;1254;60465;-79
2024/01/15 07:56:30;;;;;;;26.30;16.80;;;;;;;-1.21;81.56;98087.52;106091;1253;60358;-80
2024/01/15 07:58:57;;;;;;;31.10;18.70;;;;;;;-1.25;81.46;98091.08;106029;1258;73937;-80
2024/01/15 08:01:25;;;;;;;26.10;17.00;;;;;;;-1.21;81.33;98082.88;105884;1253;71889;-78
2024/01/15 08:03:54;;;;;;;24.10;14.90;;;;;;;-1.13;80.93;98080.08;105801;1253;72764;-82
2024/01/15 08:06:22;;;;;;;25.40;15.50;;;;;;;-1.12;80.67;98081.81;106044;1257;60556;-79
2024/01/15 08:08:50;;;;;;;22.90;14.10;;;;;;;-1.16;80.37;98089.20;105917;1258;60518;-78
2024/01/15 08:11:17;;;;;;;23.00;16.70;;;;;;;-1.15;79.92;98091.04;106218;1251;73844;-78
2024/01/15 08:13:45;;;;;;;25.10;15.30;;;;;;;-1.06;79.64;98087.44;106496;1257;71402;-79
2024/01/15 08:16:12;;;;;;;25.00;14.40;;;;;;;-1.03;79.38;98082.11;106830;1253;71867;-78
2024/01/15 08:18:41;;;;;;;23.10;14.80;;;;;;;-1.04;79.10;98084.56;109135;1253;60158;-80
2024/01/15 08:21:09;;;;;;;22.80;14.00;;;;;;;-1.05;78.68;98085.30;108887;1253;58779;-79
2024/01/15 08:23:36;;;;;;;20.50;13.20;;;;;;;-0.95;78.49;98087.98;107333;1258;73976;-78
2024/01/15 08:26:04;;;;;;;25.10;15.60;;;;;;;-0.85;78.10;98074.89;106571;1251;68858;-79
2024/01/15 08:28:32;;;;;;;21.60;15.30;;;;;;;-0.85;77.76;98077.64;106107;1256;71503;-79
2024/01/15 08:30:59;;;;;;;24.50;15.00;;;;;;;-0.86;77.95;98079.61;106046;1253;60745;-80
2024/01/15 08:33:28;;;;;;;21.00;13.40;;;;;;;-0.85;77.74;98083.17;106479;1253;61073;-80
2024/01/15 08:35:55;;;;;;;19.20;12.90;;;;;;;-0.79;77.58;98075.33;105845;1258;74665;-79
2024/01/15 08:38:23;;;;;;;20.10;13.60;;;;;;;-0.68;77.26;98082.77;106129;1253;70423;-77
2024/01/15 08:40:53;;;;;;;21.00;13.20;;;;;;;-0.69;76.73;98098.14;106478;1253;72947;-80
2024/01/15 08:43:20;;;;;;;18.50;12.20;;;;;;;-0.76;76.81;98095.95;106452;1258;60557;-80
2024/01/15 08:45:48;;;;;;;20.20;13.30;;;;;;;-0.80;76.57;98102.91;106055;1257;60436;-77
2024/01/15 08:48:15;;;;;;;21.30;13.90;;;;;;;-0.77;76.60;98102.81;106395;1253;72663;-77
2024/01/15 08:50:45;;;;;;;22.50;13.60;;;;;;;-0.69;76.17;98090.81;105935;1253;70070;-79
2024/01/15 08:53:13;;;;;;;18.30;12.20;;;;;;;-0.71;76.09;98085.23;106388;1253;72874;-77
2024/01/15 08:55:44;;;;;;;18.00;12.50;;;;;;;-0.74;75.86;98082.23;105989;1253;60302;-80
2024/01/15 08:58:12;;;;;;;19.60;13.70;;;;;;;-0.76;75.82;98075.31;106216;1252;60642;-80
2024/01/15 09:00:39;;;;;;;17.40;11.30;;;;;;;-0.76;75.68;98078.08;106559;1260;74110;-82
2024/01/15 09:03:08;;;;;;;20.30;11.70;;;;;;;-0.65;75.30;98082.33;107571;1253;71434;-79
2024/01/15 09:05:36;;;;;;;21.20;13.40;;;;;;;-0.65;74.65;98072.17;108045;1253;72729;-80
2024/01/15 09:08:05;;;;;;;17.70;12.80;;;;;;;-0.73;74.54;98071.84;108162;1253;59256;-79
2024/01/15 09:10:33;;;;;;;19.40;12.80;;;;;;;-0.77;74.65;98079.89;107897;1252;60388;-80
2024/01/15 09:13:01;;;;;;;24.00;14.30;;;;;;;-0.77;74.01;98073.11;107852;1253;73130;-79
2024/01/15 09:15:29;;;;;;;17.70;11.40;;;;;;;-0.67;74.01;98061.44;108351;1253;71340;-79
2024/01/15 09:17:58;;;;;;;18.00;11.10;;;;;;;-0.58;73.33;98060.63;108619;1254;74789;-80
2024/01/15 09:20:31;;;;;;;20.00;13.10;;;;;;;-0.60;73.21;98056.25;109052;1253;58618;-79
2024/01/15 09:22:58;;;;;;;18.40;11.00;;;;;;;-0.60;72.97;98053.31;108797;1254;59668;-79
2024/01/15 09:25:26;;;;;;;19.80;12.80;;;;;;;-0.60;72.42;98041.50;108253;1254;71628;-79
2024/01/15 09:27:54;;;;;;;25.30;14.10;;;;;;;-0.59;72.40;98043.17;107587;1258;71385;-78
2024/01/15 09:30:22;;;;;;;21.40;12.70;;;;;;;-0.49;72.33;98042.62;107243;1258;71514;-78
2024/01/15 09:32:49;;;;;;;18.70;11.70;;;;;;;-0.39;71.19;98040.63;106593;1254;60554;-78
2024/01/15 09:35:17;;;;;;;19.00;12.50;;;;;;;-0.43;70.89;98034.20;106609;1254;60934;-78
2024/01/15 09:37:45;;;;;;;25.60;15.20;;;;;;;-0.48;70.88;98029.30;107286;1255;71972;-80
2024/01/15 09:40:15;;;;;;;21.40;13.30;;;;;;;-0.50;71.34;98022.00;106573;1254;70786;-79
2024/01/15 09:42:44;;;;;;;21.30;11.90;;;;;;;-0.48;71.43;98027.92;106403;1256;71925;-79
2024/01/15 09:45:14;;;;;;;23.30;13.20;;;;;;;-0.44;71.12;98025.83;106362;1261;61925;-80
2024/01/15 09:47:43;;;;;;;19.00;12.30;;;;;;;-0.32;71.00;98015.48;106346;1255;62230;-79
2024/01/15 09:50:14;;;;;;;17.70;11.40;;;;;;;-0.27;70.58;98021.40;106520;1256;73599;-79
2024/01/15 09:52:44;;;;;;;20.60;11.60;;;;;;;-0.27;70.64;98014.66;106057;1256;69095;-80
2024/01/15 09:55:13;;;;;;;18.90;10.90;;;;;;;-0.29;70.17;98014.34;106205;1257;74612;-80
2024/01/15 09:57:41;;;;;;;18.40;11.70;;;;;;;-0.32;70.22;98011.80;106141;1259;60476;-79
2024/01/15 10:00:12;;;;;;;15.50;11.40;;;;;;;-0.33;69.79;98010.88;105896;1256;60359;-79
2024/01/15 10:02:40;;;;;;;15.50;10.10;;;;;;;-0.32;69.95;98008.01;106063;1255;74740;-79
2024/01/15 10:05:08;;;;;;;16.90;10.90;;;;;;;-0.32;69.72;98000.12;106194;1256;70310;-80
2024/01/15 10:07:37;;;;;;;17.50;10.30;;;;;;;-0.27;69.76;98006.70;106253;1256;71179;-79
2024/01/15 10:10:05;;;;;;;14.50;10.90;;;;;;;-0.14;69.50;98007.23;106408;1256;60296;-79
2024/01/15 10:12:33;;;;;;;18.30;10.60;;;;;;;-0.12;69.25;97999.50;108167;1254;60311;-81
2024/01/15 10:15:01;;;;;;;16.20;10.50;;;;;;;-0.12;69.17;97999.92;108957;1254;72864;-78
2024/01/15 10:17:28;;;;;;;18.90;11.60;;;;;;;-0.13;68.89;98009.23;109138;1253;70400;-79
2024/01/15 10:19:57;;;;;;;17.20;10.80;;;;;;;-0.13;69.07;97991.11;107364;1255;73615;-79
2024/01/15 10:22:26;;;;;;;25.00;13.80;;;;;;;-0.14;69.21;97982.70;106607;1253;60477;-79
2024/01/15 10:24:53;;;;;;;16.30;11.40;;;;;;;-0.16;69.08;97978.23;108175;1253;58994;-80
2024/01/15 10:27:22;;;;;;;17.70;11.80;;;;;;;-0.17;69.43;97986.06;107632;1253;73076;-79
2024/01/15 10:29:50;;;;;;;15.80;11.60;;;;;;;-0.09;69.49;97983.56;107189;1254;71062;-81
2024/01/15 10:32:17;;;;;;;22.00;13.70;;;;;;;0.04;69.06;97977.15;106765;1254;72717;-80
2024/01/15 10:34:45;;;;;;;17.90;12.60;;;;;;;0.06;68.95;97981.18;106520;1254;61632;-78
2024/01/15 10:37:13;;;;;;;15.80;10.90;;;;;;;0.03;68.92;97970.27;106072;1253;60989;-78
2024/01/15 10:39:40;;;;;;;17.50;12.30;;;;;;;0.01;68.80;97973.56;106000;1258;74761;-78
2024/01/15 10:42:08;;;;;;;21.20;14.30;;;;;;;0.00;68.97;97964.48;106168;1256;68187;-78
2024/01/15 10:44:35;;;;;;;13.90;9.70;;;;;;;-0.00;68.70;97985.77;106706;1258;72760;-78
2024/01/15 10:47:04;;;;;;;15.20;10.40;;;;;;;-0.04;68.54;97968.34;106741;1253;60566;-78
2024/01/15 10:49:32;;;;;;;19.70;12.40;;;;;;;-0.07;68.38;97963.60;106710;1256;60710;-79
2024/01/15 10:52:02;;;;;;;14.00;9.80;;;;;;;-0.09;68.61;97968.09;107594;1256;73149;-80
2024/01/15 10:54:30;;;;;;;16.10;9.80;;;;;;;-0.11;68.34;97968.46;107059;1258;69198;-78
2024/01/15 10:56:58;;;;;;;15.90;10.20;;;;;;;-0.14;68.40;97960.39;106620;1260;73483;-79
2024/01/15 10:59:25;;;;;;;15.70;10.30;;;;;;;-0.09;68.85;97949.88;107085;1253;63351;-80
2024/01/15 11:01:53;;;;;;;14.60;10.40;;;;;;;0.01;68.49;97949.02;106849;1256;60705;-80
2024/01/15 11:04:28;;;;;;;14.60;10.50;;;;;;;0.00;68.55;97940.46;106788;1253;72573;-77
2024/01/15 11:06:56;;;;;;;;;;;;;;;-0.05;68.86;97936.73;106406;1254;68711;-78
2024/01/15 11:09:24;;;;;;;15.00;9.70;;;;;;;-0.09;68.97;97939.05;106410;1258;73394;-78
2024/01/15 11:12:06;;;;;;;16.20;11.00;;;;;;;-0.16;69.06;97939.67;106291;1258;60533;-75
2024/01/15 11:14:36;;;;;;;15.90;10.60;;;;;;;-0.22;69.21;97930.31;107944;1253;60449;-76